sensor_id;sensor_type;location;lat;lon;timestamp;temperature;humidity
23143;DHT22;11740;51.168;4.112;2023-03-08T00:02:16;2.00;1.00
23143;DHT22;11740;51.168;4.112;2023-03-08T00:04:43;2.00;1.00
23143;DHT22;11740;51.168;4.112;2023-03-08T00:07:10;2.00;1.00
23143;DHT22;11740;51.168;4.112;2023-03-08T00:09:37;2.00;1.00
23143;DHT22;11740;51.168;4.112;2023-03-08T00:12:04;1.90;1.00
23143;DHT22;11740;51.168;4.112;2023-03-08T00:14:32;2.00;1.00
23143;DHT22;11740;51.168;4.112;2023-03-08T00:16:59;1.90;1.00
23143;DHT22;11740;51.168;4.112;2023-03-08T00:19:28;2.00;1.00
23143;DHT22;11740;51.168;4.112;2023-03-08T00:21:54;2.00;1.00
23143;DHT22;11740;51.168;4.112;2023-03-08T00:24:21;1.90;1.00
23143;DHT22;11740;51.168;4.112;2023-03-08T00:26:48;1.90;1.00
23143;DHT22;11740;51.168;4.112;2023-03-08T00:29:15;1.90;1.00
23143;DHT22;11740;51.168;4.112;2023-03-08T00:31:42;1.90;1.00
23143;DHT22;11740;51.168;4.112;2023-03-08T00:34:09;1.90;1.00
23143;DHT22;11740;51.168;4.112;2023-03-08T00:36:36;1.90;1.00
23143;DHT22;11740;51.168;4.112;2023-03-08T00:39:03;1.90;1.00
23143;DHT22;11740;51.168;4.112;2023-03-08T00:41:29;1.90;1.00
23143;DHT22;11740;51.168;4.112;2023-03-08T00:43:57;1.90;1.00
23143;DHT22;11740;51.168;4.112;2023-03-08T00:46:24;1.90;1.00
23143;DHT22;11740;51.168;4.112;2023-03-08T00:48:51;1.90;1.00
23143;DHT22;11740;51.168;4.112;2023-03-08T00:51:19;1.90;1.00
23143;DHT22;11740;51.168;4.112;2023-03-08T00:53:46;1.90;1.00
23143;DHT22;11740;51.168;4.112;2023-03-08T00:56:14;1.90;1.00
23143;DHT22;11740;51.168;4.112;2023-03-08T00:58:41;1.90;1.00
23143;DHT22;11740;51.168;4.112;2023-03-08T01:01:10;1.90;1.00
23143;DHT22;11740;51.168;4.112;2023-03-08T01:03:40;1.90;1.00
23143;DHT22;11740;51.168;4.112;2023-03-08T01:23:25;1.90;1.00
23143;DHT22;11740;51.168;4.112;2023-03-08T01:25:59;1.90;1.00
23143;DHT22;11740;51.168;4.112;2023-03-08T01:28:30;1.90;1.00
23143;DHT22;11740;51.168;4.112;2023-03-08T01:31:17;1.90;1.00
23143;DHT22;11740;51.168;4.112;2023-03-08T01:33:46;1.90;1.00
23143;DHT22;11740;51.168;4.112;2023-03-08T01:36:14;1.80;1.00
23143;DHT22;11740;51.168;4.112;2023-03-08T01:38:46;1.80;1.00
23143;DHT22;11740;51.168;4.112;2023-03-08T01:41:15;1.80;1.00
23143;DHT22;11740;51.168;4.112;2023-03-08T01:43:44;1.80;1.00
23143;DHT22;11740;51.168;4.112;2023-03-08T01:56:53;1.80;1.00
23143;DHT22;11740;51.168;4.112;2023-03-08T01:59:22;1.80;1.00
23143;DHT22;11740;51.168;4.112;2023-03-08T02:01:49;1.80;1.00
23143;DHT22;11740;51.168;4.112;2023-03-08T02:04:16;1.80;1.00
23143;DHT22;11740;51.168;4.112;2023-03-08T02:06:43;1.80;1.00
23143;DHT22;11740;51.168;4.112;2023-03-08T02:09:10;1.80;1.00
23143;DHT22;11740;51.168;4.112;2023-03-08T02:11:38;1.80;1.00
23143;DHT22;11740;51.168;4.112;2023-03-08T02:14:05;1.80;1.00
23143;DHT22;11740;51.168;4.112;2023-03-08T02:16:32;1.80;1.00
23143;DHT22;11740;51.168;4.112;2023-03-08T02:19:00;1.80;1.00
23143;DHT22;11740;51.168;4.112;2023-03-08T02:21:30;1.80;1.00
23143;DHT22;11740;51.168;4.112;2023-03-08T02:24:04;1.80;1.00
23143;DHT22;11740;51.168;4.112;2023-03-08T02:26:34;1.80;1.00
23143;DHT22;11740;51.168;4.112;2023-03-08T02:29:01;1.80;1.00
23143;DHT22;11740;51.168;4.112;2023-03-08T02:31:28;1.80;10.90
23143;DHT22;11740;51.168;4.112;2023-03-08T02:33:55;1.80;26.70
23143;DHT22;11740;51.168;4.112;2023-03-08T02:36:22;1.80;57.90
23143;DHT22;11740;51.168;4.112;2023-03-08T02:38:49;1.80;87.80
23143;DHT22;11740;51.168;4.112;2023-03-08T02:41:15;1.80;62.30
23143;DHT22;11740;51.168;4.112;2023-03-08T02:43:45;1.80;27.00
23143;DHT22;11740;51.168;4.112;2023-03-08T02:46:12;1.80;1.00
23143;DHT22;11740;51.168;4.112;2023-03-08T02:48:39;1.80;1.00
23143;DHT22;11740;51.168;4.112;2023-03-08T02:51:06;1.80;1.00
23143;DHT22;11740;51.168;4.112;2023-03-08T02:53:33;1.80;1.00
23143;DHT22;11740;51.168;4.112;2023-03-08T02:56:00;1.80;1.00
23143;DHT22;11740;51.168;4.112;2023-03-08T02:58:26;1.80;1.00
23143;DHT22;11740;51.168;4.112;2023-03-08T03:00:53;1.80;1.00
23143;DHT22;11740;51.168;4.112;2023-03-08T03:03:20;1.80;1.00
23143;DHT22;11740;51.168;4.112;2023-03-08T03:05:47;1.80;1.00
23143;DHT22;11740;51.168;4.112;2023-03-08T03:08:14;1.70;1.00
23143;DHT22;11740;51.168;4.112;2023-03-08T03:10:41;1.80;1.00
23143;DHT22;11740;51.168;4.112;2023-03-08T03:13:08;1.80;1.00
23143;DHT22;11740;51.168;4.112;2023-03-08T03:15:36;1.80;1.00
23143;DHT22;11740;51.168;4.112;2023-03-08T03:18:04;1.80;1.00
23143;DHT22;11740;51.168;4.112;2023-03-08T03:20:31;1.70;1.00
23143;DHT22;11740;51.168;4.112;2023-03-08T03:22:59;1.80;52.30
23143;DHT22;11740;51.168;4.112;2023-03-08T03:25:25;1.80;41.50
23143;DHT22;11740;51.168;4.112;2023-03-08T03:27:53;1.80;17.10
23143;DHT22;11740;51.168;4.112;2023-03-08T03:30:21;1.80;10.70
23143;DHT22;11740;51.168;4.112;2023-03-08T03:32:48;1.80;13.00
23143;DHT22;11740;51.168;4.112;2023-03-08T03:35:14;1.80;30.00
23143;DHT22;11740;51.168;4.112;2023-03-08T03:37:41;1.80;99.90
23143;DHT22;11740;51.168;4.112;2023-03-08T03:40:09;1.80;61.70
23143;DHT22;11740;51.168;4.112;2023-03-08T03:42:36;1.80;66.20
23143;DHT22;11740;51.168;4.112;2023-03-08T03:45:03;1.80;78.00
23143;DHT22;11740;51.168;4.112;2023-03-08T03:47:30;1.70;38.60
23143;DHT22;11740;51.168;4.112;2023-03-08T03:49:57;1.70;20.90
23143;DHT22;11740;51.168;4.112;2023-03-08T03:52:24;1.70;1.00
23143;DHT22;11740;51.168;4.112;2023-03-08T03:54:51;1.70;1.00
23143;DHT22;11740;51.168;4.112;2023-03-08T03:57:18;1.70;1.00
23143;DHT22;11740;51.168;4.112;2023-03-08T03:59:45;1.70;1.00
23143;DHT22;11740;51.168;4.112;2023-03-08T04:02:12;1.70;1.00
23143;DHT22;11740;51.168;4.112;2023-03-08T04:04:39;1.70;1.00
23143;DHT22;11740;51.168;4.112;2023-03-08T04:07:06;1.60;1.00
23143;DHT22;11740;51.168;4.112;2023-03-08T04:09:33;1.60;1.00
23143;DHT22;11740;51.168;4.112;2023-03-08T04:12:01;1.60;1.00
23143;DHT22;11740;51.168;4.112;2023-03-08T04:14:31;1.60;1.00
23143;DHT22;11740;51.168;4.112;2023-03-08T04:16:58;1.50;1.00
23143;DHT22;11740;51.168;4.112;2023-03-08T04:19:25;1.60;1.00
23143;DHT22;11740;51.168;4.112;2023-03-08T04:21:51;1.50;1.00
23143;DHT22;11740;51.168;4.112;2023-03-08T04:24:18;1.50;1.00
23143;DHT22;11740;51.168;4.112;2023-03-08T04:26:45;1.50;1.00
23143;DHT22;11740;51.168;4.112;2023-03-08T04:29:12;1.50;1.00
23143;DHT22;11740;51.168;4.112;2023-03-08T04:31:39;1.50;1.00
23143;DHT22;11740;51.168;4.112;2023-03-08T04:34:06;1.40;1.00
23143;DHT22;11740;51.168;4.112;2023-03-08T04:36:33;1.40;1.00
23143;DHT22;11740;51.168;4.112;2023-03-08T04:39:00;1.40;1.00
23143;DHT22;11740;51.168;4.112;2023-03-08T04:41:27;1.40;1.00
23143;DHT22;11740;51.168;4.112;2023-03-08T04:43:55;1.30;1.00
23143;DHT22;11740;51.168;4.112;2023-03-08T04:46:23;1.30;1.00
23143;DHT22;11740;51.168;4.112;2023-03-08T04:48:51;1.30;1.00
23143;DHT22;11740;51.168;4.112;2023-03-08T04:51:20;1.30;1.00
23143;DHT22;11740;51.168;4.112;2023-03-08T04:53:48;1.30;1.00
23143;DHT22;11740;51.168;4.112;2023-03-08T04:56:15;1.20;1.00
23143;DHT22;11740;51.168;4.112;2023-03-08T04:58:43;1.30;1.00
23143;DHT22;11740;51.168;4.112;2023-03-08T05:01:14;1.20;1.00
23143;DHT22;11740;51.168;4.112;2023-03-08T05:03:42;1.20;6.70
23143;DHT22;11740;51.168;4.112;2023-03-08T05:06:10;1.20;1.00
23143;DHT22;11740;51.168;4.112;2023-03-08T05:08:39;1.10;1.00
23143;DHT22;11740;51.168;4.112;2023-03-08T05:11:07;1.10;20.30
23143;DHT22;11740;51.168;4.112;2023-03-08T05:13:35;1.10;20.10
23143;DHT22;11740;51.168;4.112;2023-03-08T05:16:03;1.10;42.60
23143;DHT22;11740;51.168;4.112;2023-03-08T05:18:31;1.10;70.70
23143;DHT22;11740;51.168;4.112;2023-03-08T05:21:01;1.00;99.90
23143;DHT22;11740;51.168;4.112;2023-03-08T05:23:30;1.00;99.90
23143;DHT22;11740;51.168;4.112;2023-03-08T05:25:58;1.00;99.90
23143;DHT22;11740;51.168;4.112;2023-03-08T05:28:27;1.00;99.90
23143;DHT22;11740;51.168;4.112;2023-03-08T05:33:31;0.90;99.90
23143;DHT22;11740;51.168;4.112;2023-03-08T05:35:58;0.90;99.90
23143;DHT22;11740;51.168;4.112;2023-03-08T05:38:25;0.90;99.90
23143;DHT22;11740;51.168;4.112;2023-03-08T05:40:52;0.90;99.90
23143;DHT22;11740;51.168;4.112;2023-03-08T05:43:19;0.90;99.90
23143;DHT22;11740;51.168;4.112;2023-03-08T05:45:57;0.90;99.90
23143;DHT22;11740;51.168;4.112;2023-03-08T05:48:26;0.80;99.90
23143;DHT22;11740;51.168;4.112;2023-03-08T05:50:53;0.80;99.90
23143;DHT22;11740;51.168;4.112;2023-03-08T05:53:20;0.80;99.90
23143;DHT22;11740;51.168;4.112;2023-03-08T05:55:48;0.80;99.90
23143;DHT22;11740;51.168;4.112;2023-03-08T05:58:15;0.80;99.90
23143;DHT22;11740;51.168;4.112;2023-03-08T06:00:42;0.80;99.90
23143;DHT22;11740;51.168;4.112;2023-03-08T06:03:08;0.80;99.90
23143;DHT22;11740;51.168;4.112;2023-03-08T06:05:36;0.70;99.90
23143;DHT22;11740;51.168;4.112;2023-03-08T06:08:03;0.70;99.90
23143;DHT22;11740;51.168;4.112;2023-03-08T06:10:30;0.80;99.90
23143;DHT22;11740;51.168;4.112;2023-03-08T06:12:57;0.70;99.90
23143;DHT22;11740;51.168;4.112;2023-03-08T06:15:23;0.70;99.90
23143;DHT22;11740;51.168;4.112;2023-03-08T06:17:51;0.70;99.90
23143;DHT22;11740;51.168;4.112;2023-03-08T06:20:19;0.70;99.90
23143;DHT22;11740;51.168;4.112;2023-03-08T06:22:46;0.60;99.90
23143;DHT22;11740;51.168;4.112;2023-03-08T06:25:13;0.60;99.90
23143;DHT22;11740;51.168;4.112;2023-03-08T06:27:40;0.60;99.90
23143;DHT22;11740;51.168;4.112;2023-03-08T06:30:07;0.60;99.90
23143;DHT22;11740;51.168;4.112;2023-03-08T06:32:34;0.60;99.90
23143;DHT22;11740;51.168;4.112;2023-03-08T06:35:03;0.60;99.90
23143;DHT22;11740;51.168;4.112;2023-03-08T06:37:31;0.60;99.90
23143;DHT22;11740;51.168;4.112;2023-03-08T06:39:59;0.60;99.90
23143;DHT22;11740;51.168;4.112;2023-03-08T06:42:27;0.50;99.90
23143;DHT22;11740;51.168;4.112;2023-03-08T06:45:06;0.60;99.90
23143;DHT22;11740;51.168;4.112;2023-03-08T06:47:34;0.50;99.90
23143;DHT22;11740;51.168;4.112;2023-03-08T06:50:00;0.50;99.90
23143;DHT22;11740;51.168;4.112;2023-03-08T06:52:27;0.50;1.00
23143;DHT22;11740;51.168;4.112;2023-03-08T06:55:00;0.50;1.00
23143;DHT22;11740;51.168;4.112;2023-03-08T06:57:27;0.50;1.00
23143;DHT22;11740;51.168;4.112;2023-03-08T06:59:54;0.40;1.00
23143;DHT22;11740;51.168;4.112;2023-03-08T07:02:21;0.40;1.00
23143;DHT22;11740;51.168;4.112;2023-03-08T07:04:48;0.50;1.00
23143;DHT22;11740;51.168;4.112;2023-03-08T07:07:15;0.40;1.00
23143;DHT22;11740;51.168;4.112;2023-03-08T07:09:42;0.40;1.00
23143;DHT22;11740;51.168;4.112;2023-03-08T07:12:09;0.40;1.00
23143;DHT22;11740;51.168;4.112;2023-03-08T07:14:36;0.40;1.00
23143;DHT22;11740;51.168;4.112;2023-03-08T07:17:02;0.30;1.00
23143;DHT22;11740;51.168;4.112;2023-03-08T07:19:30;0.40;1.00
23143;DHT22;11740;51.168;4.112;2023-03-08T07:21:57;0.40;1.00
23143;DHT22;11740;51.168;4.112;2023-03-08T07:24:24;0.40;1.00
23143;DHT22;11740;51.168;4.112;2023-03-08T07:26:50;0.40;1.00
23143;DHT22;11740;51.168;4.112;2023-03-08T07:29:17;0.30;1.00
23143;DHT22;11740;51.168;4.112;2023-03-08T07:31:44;0.40;1.00
23143;DHT22;11740;51.168;4.112;2023-03-08T07:34:11;0.30;1.00
23143;DHT22;11740;51.168;4.112;2023-03-08T07:36:38;0.30;1.00
23143;DHT22;11740;51.168;4.112;2023-03-08T07:39:05;0.40;1.00
23143;DHT22;11740;51.168;4.112;2023-03-08T07:41:32;0.40;1.00
23143;DHT22;11740;51.168;4.112;2023-03-08T07:44:00;0.30;1.00
23143;DHT22;11740;51.168;4.112;2023-03-08T07:46:28;0.40;1.00
23143;DHT22;11740;51.168;4.112;2023-03-08T07:48:55;0.40;1.00
23143;DHT22;11740;51.168;4.112;2023-03-08T07:51:22;0.40;1.00
23143;DHT22;11740;51.168;4.112;2023-03-08T07:53:50;0.40;1.00
23143;DHT22;11740;51.168;4.112;2023-03-08T07:56:17;0.40;1.00
23143;DHT22;11740;51.168;4.112;2023-03-08T07:58:44;0.40;1.00
23143;DHT22;11740;51.168;4.112;2023-03-08T08:01:12;0.40;1.00
23143;DHT22;11740;51.168;4.112;2023-03-08T08:03:42;0.40;1.00
23143;DHT22;11740;51.168;4.112;2023-03-08T08:06:09;0.30;1.00
23143;DHT22;11740;51.168;4.112;2023-03-08T08:08:36;0.40;1.00
23143;DHT22;11740;51.168;4.112;2023-03-08T08:11:08;0.40;1.00
23143;DHT22;11740;51.168;4.112;2023-03-08T08:13:36;0.40;1.00
23143;DHT22;11740;51.168;4.112;2023-03-08T08:16:03;0.40;1.00
23143;DHT22;11740;51.168;4.112;2023-03-08T08:18:33;0.40;1.00
23143;DHT22;11740;51.168;4.112;2023-03-08T08:21:04;0.40;1.00
23143;DHT22;11740;51.168;4.112;2023-03-08T08:23:33;0.40;1.00
23143;DHT22;11740;51.168;4.112;2023-03-08T08:26:08;0.40;1.00
23143;DHT22;11740;51.168;4.112;2023-03-08T08:28:37;0.40;1.00
23143;DHT22;11740;51.168;4.112;2023-03-08T08:31:06;0.40;1.00
23143;DHT22;11740;51.168;4.112;2023-03-08T08:33:34;0.40;1.00
23143;DHT22;11740;51.168;4.112;2023-03-08T08:36:03;0.40;1.00
23143;DHT22;11740;51.168;4.112;2023-03-08T08:38:31;0.40;1.00
23143;DHT22;11740;51.168;4.112;2023-03-08T08:40:59;0.40;1.00
23143;DHT22;11740;51.168;4.112;2023-03-08T08:43:27;0.40;1.00
23143;DHT22;11740;51.168;4.112;2023-03-08T08:45:54;0.40;1.00
23143;DHT22;11740;51.168;4.112;2023-03-08T08:48:23;0.40;1.00
23143;DHT22;11740;51.168;4.112;2023-03-08T08:50:50;0.50;1.00
23143;DHT22;11740;51.168;4.112;2023-03-08T08:53:17;0.50;1.00
23143;DHT22;11740;51.168;4.112;2023-03-08T08:55:45;0.50;1.00
23143;DHT22;11740;51.168;4.112;2023-03-08T08:58:12;0.50;1.00
23143;DHT22;11740;51.168;4.112;2023-03-08T09:00:39;0.50;1.00
23143;DHT22;11740;51.168;4.112;2023-03-08T09:03:06;0.50;1.00
23143;DHT22;11740;51.168;4.112;2023-03-08T09:05:36;0.60;1.00
23143;DHT22;11740;51.168;4.112;2023-03-08T09:08:04;0.60;1.00
23143;DHT22;11740;51.168;4.112;2023-03-08T09:10:32;0.50;1.00
23143;DHT22;11740;51.168;4.112;2023-03-08T09:13:00;0.50;1.00
23143;DHT22;11740;51.168;4.112;2023-03-08T09:15:27;0.60;1.00
23143;DHT22;11740;51.168;4.112;2023-03-08T09:17:54;0.60;1.00
23143;DHT22;11740;51.168;4.112;2023-03-08T09:20:21;0.60;1.00
23143;DHT22;11740;51.168;4.112;2023-03-08T09:22:49;0.70;1.00
23143;DHT22;11740;51.168;4.112;2023-03-08T09:25:16;0.70;1.00
23143;DHT22;11740;51.168;4.112;2023-03-08T09:27:47;0.70;1.00
23143;DHT22;11740;51.168;4.112;2023-03-08T09:30:14;0.80;1.00
23143;DHT22;11740;51.168;4.112;2023-03-08T09:32:42;0.80;1.00
23143;DHT22;11740;51.168;4.112;2023-03-08T09:35:10;0.80;1.00
23143;DHT22;11740;51.168;4.112;2023-03-08T09:37:37;0.80;1.00
23143;DHT22;11740;51.168;4.112;2023-03-08T09:40:04;0.80;1.00
23143;DHT22;11740;51.168;4.112;2023-03-08T09:42:37;0.90;1.00
23143;DHT22;11740;51.168;4.112;2023-03-08T09:47:59;0.90;1.00
23143;DHT22;11740;51.168;4.112;2023-03-08T09:50:37;0.90;1.00
23143;DHT22;11740;51.168;4.112;2023-03-08T09:55:55;1.00;1.00
23143;DHT22;11740;51.168;4.112;2023-03-08T09:58:43;1.00;1.00
23143;DHT22;11740;51.168;4.112;2023-03-08T10:01:24;1.10;1.00
23143;DHT22;11740;51.168;4.112;2023-03-08T10:08:55;1.10;1.00
23143;DHT22;11740;51.168;4.112;2023-03-08T10:11:36;1.10;1.00
23143;DHT22;11740;51.168;4.112;2023-03-08T10:14:18;1.20;1.00
23143;DHT22;11740;51.168;4.112;2023-03-08T10:16:49;1.20;1.00
23143;DHT22;11740;51.168;4.112;2023-03-08T10:19:27;1.20;1.00
23143;DHT22;11740;51.168;4.112;2023-03-08T10:22:05;1.30;1.00
23143;DHT22;11740;51.168;4.112;2023-03-08T10:24:44;1.30;1.00
23143;DHT22;11740;51.168;4.112;2023-03-08T10:27:22;1.30;1.00
23143;DHT22;11740;51.168;4.112;2023-03-08T10:29:55;1.30;1.00
23143;DHT22;11740;51.168;4.112;2023-03-08T10:32:23;1.40;1.00
23143;DHT22;11740;51.168;4.112;2023-03-08T10:34:51;1.40;1.00
23143;DHT22;11740;51.168;4.112;2023-03-08T10:37:21;1.40;1.00
23143;DHT22;11740;51.168;4.112;2023-03-08T10:39:50;1.40;1.00
23143;DHT22;11740;51.168;4.112;2023-03-08T10:42:20;1.40;1.00
23143;DHT22;11740;51.168;4.112;2023-03-08T10:47:20;1.50;1.00
23143;DHT22;11740;51.168;4.112;2023-03-08T10:50:09;1.50;1.00
23143;DHT22;11740;51.168;4.112;2023-03-08T10:52:43;1.50;1.00
23143;DHT22;11740;51.168;4.112;2023-03-08T10:55:12;1.50;1.00
23143;DHT22;11740;51.168;4.112;2023-03-08T10:57:48;1.50;1.00
23143;DHT22;11740;51.168;4.112;2023-03-08T11:00:23;1.60;1.00
23143;DHT22;11740;51.168;4.112;2023-03-08T11:03:00;1.60;1.00
23143;DHT22;11740;51.168;4.112;2023-03-08T11:05:51;1.60;1.00
23143;DHT22;11740;51.168;4.112;2023-03-08T11:08:21;1.70;1.00
23143;DHT22;11740;51.168;4.112;2023-03-08T11:11:00;1.70;1.00
23143;DHT22;11740;51.168;4.112;2023-03-08T11:16:12;1.70;1.00
23143;DHT22;11740;51.168;4.112;2023-03-08T11:35:47;1.80;99.90
23143;DHT22;11740;51.168;4.112;2023-03-08T11:38:21;1.90;99.90
23143;DHT22;11740;51.168;4.112;2023-03-08T11:51:35;1.90;99.90
23143;DHT22;11740;51.168;4.112;2023-03-08T11:57:03;1.90;99.90
23143;DHT22;11740;51.168;4.112;2023-03-08T12:02:24;1.90;99.90
23143;DHT22;11740;51.168;4.112;2023-03-08T12:10:17;1.90;94.70
23143;DHT22;11740;51.168;4.112;2023-03-08T12:12:55;2.00;99.90
23143;DHT22;11740;51.168;4.112;2023-03-08T12:15:36;2.00;99.90
23143;DHT22;11740;51.168;4.112;2023-03-08T12:18:28;2.10;87.10
23143;DHT22;11740;51.168;4.112;2023-03-08T12:21:00;2.10;41.10
23143;DHT22;11740;51.168;4.112;2023-03-08T12:23:35;2.10;96.50
23143;DHT22;11740;51.168;4.112;2023-03-08T12:26:33;2.20;99.90
23143;DHT22;11740;51.168;4.112;2023-03-08T12:29:04;2.30;99.90
23143;DHT22;11740;51.168;4.112;2023-03-08T12:31:42;2.30;56.70
23143;DHT22;11740;51.168;4.112;2023-03-08T12:34:58;2.30;52.70
23143;DHT22;11740;51.168;4.112;2023-03-08T12:37:19;2.30;1.00
23143;DHT22;11740;51.168;4.112;2023-03-08T12:39:55;2.20;1.00
23143;DHT22;11740;51.168;4.112;2023-03-08T12:42:27;2.30;1.00
23143;DHT22;11740;51.168;4.112;2023-03-08T12:45:24;2.40;1.00
23143;DHT22;11740;51.168;4.112;2023-03-08T12:50:30;2.40;1.00
23143;DHT22;11740;51.168;4.112;2023-03-08T12:52:59;2.30;1.00
23143;DHT22;11740;51.168;4.112;2023-03-08T12:55:26;2.30;1.00
23143;DHT22;11740;51.168;4.112;2023-03-08T12:57:58;2.30;1.00
23143;DHT22;11740;51.168;4.112;2023-03-08T13:00:28;2.40;1.00
23143;DHT22;11740;51.168;4.112;2023-03-08T13:03:42;2.40;1.00
23143;DHT22;11740;51.168;4.112;2023-03-08T13:05:44;2.30;1.00
23143;DHT22;11740;51.168;4.112;2023-03-08T13:10:51;2.40;1.00
23143;DHT22;11740;51.168;4.112;2023-03-08T13:21:37;2.40;1.00
23143;DHT22;11740;51.168;4.112;2023-03-08T13:24:17;2.40;1.00
23143;DHT22;11740;51.168;4.112;2023-03-08T13:29:28;2.40;1.00
23143;DHT22;11740;51.168;4.112;2023-03-08T13:31:57;2.50;1.00
23143;DHT22;11740;51.168;4.112;2023-03-08T13:34:26;2.50;1.00
23143;DHT22;11740;51.168;4.112;2023-03-08T13:36:57;2.50;1.00
23143;DHT22;11740;51.168;4.112;2023-03-08T13:39:26;2.50;1.00
23143;DHT22;11740;51.168;4.112;2023-03-08T13:42:07;2.50;1.00
23143;DHT22;11740;51.168;4.112;2023-03-08T13:44:36;2.50;1.00
23143;DHT22;11740;51.168;4.112;2023-03-08T13:47:10;2.50;1.00
23143;DHT22;11740;51.168;4.112;2023-03-08T13:49:42;2.50;1.00
23143;DHT22;11740;51.168;4.112;2023-03-08T13:52:16;2.60;1.00
23143;DHT22;11740;51.168;4.112;2023-03-08T13:54:48;2.50;1.00
23143;DHT22;11740;51.168;4.112;2023-03-08T13:57:30;2.50;1.00
23143;DHT22;11740;51.168;4.112;2023-03-08T14:00:00;2.50;1.00
23143;DHT22;11740;51.168;4.112;2023-03-08T14:02:43;2.50;1.00
23143;DHT22;11740;51.168;4.112;2023-03-08T14:05:19;2.50;1.00
23143;DHT22;11740;51.168;4.112;2023-03-08T14:07:55;2.50;1.00
23143;DHT22;11740;51.168;4.112;2023-03-08T14:10:36;2.60;1.00
23143;DHT22;11740;51.168;4.112;2023-03-08T14:13:13;2.60;1.00
23143;DHT22;11740;51.168;4.112;2023-03-08T14:15:48;2.60;1.00
23143;DHT22;11740;51.168;4.112;2023-03-08T14:18:24;2.60;1.00
23143;DHT22;11740;51.168;4.112;2023-03-08T14:21:29;2.60;1.00
23143;DHT22;11740;51.168;4.112;2023-03-08T14:23:52;2.60;1.00
23143;DHT22;11740;51.168;4.112;2023-03-08T14:26:24;2.60;1.00
23143;DHT22;11740;51.168;4.112;2023-03-08T14:29:15;2.60;1.00
23143;DHT22;11740;51.168;4.112;2023-03-08T14:34:23;2.50;1.00
23143;DHT22;11740;51.168;4.112;2023-03-08T14:36:53;2.50;1.00
23143;DHT22;11740;51.168;4.112;2023-03-08T14:39:22;2.50;1.00
23143;DHT22;11740;51.168;4.112;2023-03-08T14:41:51;2.50;1.00
23143;DHT22;11740;51.168;4.112;2023-03-08T14:44:20;2.50;1.00
23143;DHT22;11740;51.168;4.112;2023-03-08T14:46:51;2.60;1.00
23143;DHT22;11740;51.168;4.112;2023-03-08T14:49:27;2.60;1.00
23143;DHT22;11740;51.168;4.112;2023-03-08T14:51:55;2.60;1.00
23143;DHT22;11740;51.168;4.112;2023-03-08T14:54:29;2.60;1.00
23143;DHT22;11740;51.168;4.112;2023-03-08T14:57:00;2.60;1.00
23143;DHT22;11740;51.168;4.112;2023-03-08T14:59:44;2.60;1.00
23143;DHT22;11740;51.168;4.112;2023-03-08T15:02:12;2.60;1.00
23143;DHT22;11740;51.168;4.112;2023-03-08T15:04:40;2.70;1.00
23143;DHT22;11740;51.168;4.112;2023-03-08T15:07:09;2.60;1.00
23143;DHT22;11740;51.168;4.112;2023-03-08T15:09:44;2.60;1.00
23143;DHT22;11740;51.168;4.112;2023-03-08T15:12:13;2.60;1.00
23143;DHT22;11740;51.168;4.112;2023-03-08T15:14:40;2.60;1.00
23143;DHT22;11740;51.168;4.112;2023-03-08T15:17:07;2.60;1.00
23143;DHT22;11740;51.168;4.112;2023-03-08T15:19:34;2.60;1.00
23143;DHT22;11740;51.168;4.112;2023-03-08T15:22:01;2.60;1.00
23143;DHT22;11740;51.168;4.112;2023-03-08T15:24:30;2.60;1.00
23143;DHT22;11740;51.168;4.112;2023-03-08T15:26:56;2.60;1.00
23143;DHT22;11740;51.168;4.112;2023-03-08T15:29:28;2.60;1.00
23143;DHT22;11740;51.168;4.112;2023-03-08T15:31:56;2.60;1.00
23143;DHT22;11740;51.168;4.112;2023-03-08T15:34:26;2.60;14.90
23143;DHT22;11740;51.168;4.112;2023-03-08T15:37:00;2.60;16.40
23143;DHT22;11740;51.168;4.112;2023-03-08T15:39:27;2.60;1.00
23143;DHT22;11740;51.168;4.112;2023-03-08T15:41:54;2.60;55.80
23143;DHT22;11740;51.168;4.112;2023-03-08T15:44:21;2.60;79.30
23143;DHT22;11740;51.168;4.112;2023-03-08T15:46:48;2.60;99.90
23143;DHT22;11740;51.168;4.112;2023-03-08T15:49:18;2.60;99.90
23143;DHT22;11740;51.168;4.112;2023-03-08T15:51:45;2.60;99.90
23143;DHT22;11740;51.168;4.112;2023-03-08T15:54:11;2.60;99.90
23143;DHT22;11740;51.168;4.112;2023-03-08T15:56:38;2.60;99.90
23143;DHT22;11740;51.168;4.112;2023-03-08T15:59:05;2.60;99.90
23143;DHT22;11740;51.168;4.112;2023-03-08T16:01:33;2.60;99.90
23143;DHT22;11740;51.168;4.112;2023-03-08T16:03:59;2.60;99.90
23143;DHT22;11740;51.168;4.112;2023-03-08T16:06:26;2.60;99.90
23143;DHT22;11740;51.168;4.112;2023-03-08T16:08:53;2.60;99.90
23143;DHT22;11740;51.168;4.112;2023-03-08T16:11:20;2.60;99.90
23143;DHT22;11740;51.168;4.112;2023-03-08T16:13:49;2.60;99.90
23143;DHT22;11740;51.168;4.112;2023-03-08T16:16:17;2.60;99.90
23143;DHT22;11740;51.168;4.112;2023-03-08T16:18:44;2.60;99.90
23143;DHT22;11740;51.168;4.112;2023-03-08T16:21:11;2.60;99.90
23143;DHT22;11740;51.168;4.112;2023-03-08T16:23:38;2.60;99.90
23143;DHT22;11740;51.168;4.112;2023-03-08T16:26:11;2.60;99.90
23143;DHT22;11740;51.168;4.112;2023-03-08T16:28:44;2.60;99.90
23143;DHT22;11740;51.168;4.112;2023-03-08T16:31:12;2.60;99.90
23143;DHT22;11740;51.168;4.112;2023-03-08T16:33:40;2.60;99.90
23143;DHT22;11740;51.168;4.112;2023-03-08T16:36:07;2.60;99.90
23143;DHT22;11740;51.168;4.112;2023-03-08T16:38:34;2.60;99.90
23143;DHT22;11740;51.168;4.112;2023-03-08T16:41:01;2.60;99.90
23143;DHT22;11740;51.168;4.112;2023-03-08T16:43:42;2.60;99.90
23143;DHT22;11740;51.168;4.112;2023-03-08T16:46:15;2.60;99.90
23143;DHT22;11740;51.168;4.112;2023-03-08T16:48:43;2.60;99.90
23143;DHT22;11740;51.168;4.112;2023-03-08T16:51:13;2.60;99.90
23143;DHT22;11740;51.168;4.112;2023-03-08T16:53:41;2.60;99.90
23143;DHT22;11740;51.168;4.112;2023-03-08T16:56:15;2.60;99.90
23143;DHT22;11740;51.168;4.112;2023-03-08T16:58:43;2.50;99.90
23143;DHT22;11740;51.168;4.112;2023-03-08T17:01:13;2.50;99.90
23143;DHT22;11740;51.168;4.112;2023-03-08T17:03:41;2.50;99.90
23143;DHT22;11740;51.168;4.112;2023-03-08T17:06:09;2.50;99.90
23143;DHT22;11740;51.168;4.112;2023-03-08T17:08:37;2.50;99.90
23143;DHT22;11740;51.168;4.112;2023-03-08T17:11:04;2.50;99.90
23143;DHT22;11740;51.168;4.112;2023-03-08T17:13:31;2.40;99.90
23143;DHT22;11740;51.168;4.112;2023-03-08T17:15:58;2.40;99.90
23143;DHT22;11740;51.168;4.112;2023-03-08T17:18:26;2.40;99.90
23143;DHT22;11740;51.168;4.112;2023-03-08T17:20:53;2.40;99.90
23143;DHT22;11740;51.168;4.112;2023-03-08T17:23:19;2.40;99.90
23143;DHT22;11740;51.168;4.112;2023-03-08T17:25:46;2.40;99.90
23143;DHT22;11740;51.168;4.112;2023-03-08T17:28:13;2.30;99.90
23143;DHT22;11740;51.168;4.112;2023-03-08T17:30:41;2.30;99.90
23143;DHT22;11740;51.168;4.112;2023-03-08T17:33:08;2.40;99.90
23143;DHT22;11740;51.168;4.112;2023-03-08T17:35:37;2.30;99.90
23143;DHT22;11740;51.168;4.112;2023-03-08T17:38:06;2.40;99.90
23143;DHT22;11740;51.168;4.112;2023-03-08T17:40:33;2.30;99.90
23143;DHT22;11740;51.168;4.112;2023-03-08T17:42:59;2.30;99.90
23143;DHT22;11740;51.168;4.112;2023-03-08T17:45:28;2.30;99.90
23143;DHT22;11740;51.168;4.112;2023-03-08T17:47:55;2.30;99.90
23143;DHT22;11740;51.168;4.112;2023-03-08T17:50:26;2.30;99.90
23143;DHT22;11740;51.168;4.112;2023-03-08T17:52:57;2.30;99.90
23143;DHT22;11740;51.168;4.112;2023-03-08T17:55:24;2.30;99.90
23143;DHT22;11740;51.168;4.112;2023-03-08T17:57:52;2.30;99.90